Time;durP1;ratioP1;P1;durP2;ratioP2;P2;SDS_P1;SDS_P2;PMS_P1;PMS_P2;Temp;Humidity;BMP_temperature;BMP_pressure;BME280_temperature;BME280_humidity;BME280_pressure;Samples;Min_cycle;Max_cycle;Signal;HPM_P1;HPM_P2
2023/01/07 00:02:22;;;;;;;5.32;4.82;;;9.60;99.90;;;;;;5013661;28;20032;-53
2023/01/07 00:05:09;;;;;;;5.40;4.45;;;9.60;99.90;;;;;;5013125;28;20034;-51
2023/01/07 00:07:54;;;;;;;6.15;5.10;;;9.60;99.90;;;;;;5012278;28;20073;-52
2023/01/07 00:10:40;;;;;;;5.57;5.07;;;9.50;99.90;;;;;;5012710;28;20026;-50
2023/01/07 00:13:26;;;;;;;6.13;4.85;;;9.50;99.90;;;;;;4997886;28;20030;-49
2023/01/07 00:16:15;;;;;;;6.40;5.00;;;9.40;99.90;;;;;;5014424;28;20065;-52
2023/01/07 00:19:03;;;;;;;5.95;4.57;;;9.40;99.90;;;;;;5011403;28;20030;-50
2023/01/07 00:21:48;;;;;;;5.75;5.18;;;9.30;99.90;;;;;;5012329;28;20548;-52
2023/01/07 00:24:34;;;;;;;5.95;5.35;;;9.30;99.90;;;;;;4998064;28;20073;-49
2023/01/07 00:27:20;;;;;;;5.57;5.07;;;9.30;99.90;;;;;;5012234;28;20061;-51
2023/01/07 00:30:07;;;;;;;6.80;5.70;;;9.20;99.90;;;;;;4998615;28;20498;-48
2023/01/07 00:33:03;;;;;;;6.78;5.00;;;9.20;99.90;;;;;;5016232;28;20040;-48
2023/01/07 00:35:58;;;;;;;4.80;4.32;;;9.10;99.90;;;;;;5014104;28;20026;-50
2023/01/07 00:38:44;;;;;;;5.63;4.00;;;9.20;99.90;;;;;;4985140;28;20022;-49
2023/01/07 00:41:33;;;;;;;4.85;4.45;;;9.20;99.90;;;;;;5015205;28;20509;-49
2023/01/07 00:44:19;;;;;;;5.50;4.35;;;9.20;99.90;;;;;;5015902;28;20022;-48
2023/01/07 00:47:05;;;;;;;5.38;4.50;;;9.10;99.90;;;;;;5000104;28;20018;-49
2023/01/07 00:49:51;;;;;;;4.50;4.10;;;9.00;99.90;;;;;;5015003;28;20026;-48
2023/01/07 00:52:37;;;;;;;4.90;4.50;;;9.10;99.90;;;;;;5016098;28;20029;-52
2023/01/07 00:55:24;;;;;;;6.00;4.72;;;9.00;99.90;;;;;;5014238;28;20482;-48
2023/01/07 00:58:25;;;;;;;5.35;4.85;;;9.10;99.90;;;;;;5014534;28;20028;-52
2023/01/07 01:01:11;;;;;;;5.32;4.82;;;9.00;99.90;;;;;;5014467;28;20104;-49
2023/01/07 01:03:57;;;;;;;5.40;4.68;;;9.00;99.90;;;;;;5013729;28;20021;-48
2023/01/07 01:06:43;;;;;;;7.10;4.82;;;9.00;99.90;;;;;;4999840;28;20022;-50
2023/01/07 01:09:32;;;;;;;5.97;4.85;;;9.00;99.90;;;;;;5011914;28;20021;-48
2023/01/07 01:12:18;;;;;;;5.90;4.80;;;9.00;99.90;;;;;;5013712;28;20032;-48
2023/01/07 01:15:07;;;;;;;5.60;5.07;;;8.90;99.90;;;;;;5012955;28;20022;-47
2023/01/07 01:17:53;;;;;;;5.80;5.30;;;8.90;99.90;;;;;;5012909;28;20041;-47
2023/01/07 01:20:39;;;;;;;5.72;5.13;;;8.90;99.90;;;;;;5014549;28;20038;-50
2023/01/07 01:23:25;;;;;;;7.70;5.05;;;8.90;99.90;;;;;;5012407;28;20026;-49
2023/01/07 01:26:14;;;;;;;5.85;5.25;;;8.90;99.90;;;;;;5012839;28;20442;-47
2023/01/07 01:29:00;;;;;;;5.22;4.25;;;8.80;99.90;;;;;;5013162;28;20030;-48
2023/01/07 01:31:47;;;;;;;7.38;4.38;;;8.90;99.90;;;;;;5013106;28;20034;-49
2023/01/07 01:34:34;;;;;;;6.90;4.75;;;8.90;99.90;;;;;;5012774;28;20077;-50
2023/01/07 01:37:20;;;;;;;5.90;4.25;;;9.00;99.90;;;;;;5013633;28;20030;-49
2023/01/07 01:40:07;;;;;;;4.65;4.03;;;9.00;99.90;;;;;;5013651;28;20030;-48
2023/01/07 01:42:53;;;;;;;6.10;4.00;;;9.00;99.90;;;;;;5012428;28;20493;-49
2023/01/07 01:45:38;;;;;;;4.30;3.83;;;9.00;99.90;;;;;;5012610;28;20030;-47
2023/01/07 01:48:25;;;;;;;5.13;3.97;;;9.10;99.90;;;;;;5015997;28;20049;-47
2023/01/07 01:51:14;;;;;;;3.70;3.40;;;9.10;99.90;;;;;;5016180;28;20026;-48
2023/01/07 01:54:05;;;;;;;4.47;3.60;;;9.10;99.90;;;;;;5017277;28;20514;-49
2023/01/07 01:56:55;;;;;;;4.65;3.50;;;9.10;99.90;;;;;;5016493;28;20092;-50
2023/01/07 01:59:44;;;;;;;3.67;3.28;;;9.10;99.90;;;;;;5001701;28;20053;-47
2023/01/07 02:02:42;;;;;;;3.78;3.20;;;9.20;99.90;;;;;;5015335;28;20036;-50
2023/01/07 02:05:32;;;;;;;3.72;2.85;;;9.10;99.90;;;;;;5015966;28;20123;-50
2023/01/07 02:08:21;;;;;;;3.30;2.88;;;9.20;99.90;;;;;;5017037;28;20018;-49
2023/01/07 02:11:19;;;;;;;31.80;19.60;;;9.20;99.90;;;;;;5015491;28;20104;-51
2023/01/07 02:14:17;;;;;;;4.30;3.47;;;9.20;99.90;;;;;;5015648;28;20022;-49
2023/01/07 02:17:25;;;;;;;2.83;2.60;;;9.30;99.90;;;;;;5014289;28;20029;-49
2023/01/07 02:20:29;;;;;;;3.50;3.00;;;9.40;99.90;;;;;;5000952;28;20482;-50
2023/01/07 02:24:02;;;;;;;2.80;2.60;;;9.40;99.90;;;;;;5013825;28;20033;-49
2023/01/07 02:27:06;;;;;;;3.17;2.60;;;9.40;99.90;;;;;;5007192;28;20398;-55
2023/01/07 02:30:30;;;;;;;4.05;2.45;;;9.30;99.90;;;;;;5014048;28;20061;-48
2023/01/07 02:33:35;;;;;;;2.83;2.55;;;9.40;99.90;;;;;;5014874;28;20029;-46
2023/01/07 02:36:45;;;;;;;3.27;2.50;;;9.40;99.90;;;;;;5014666;28;20478;-48
2023/01/07 02:39:55;;;;;;;3.00;2.70;;;9.40;99.90;;;;;;5015443;28;20036;-54
2023/01/07 02:43:06;;;;;;;3.25;2.72;;;9.40;99.90;;;;;;5015057;28;20033;-47
2023/01/07 02:46:10;;;;;;;2.80;2.50;;;9.30;99.90;;;;;;5014678;28;20098;-47
2023/01/07 02:49:03;;;;;;;2.63;2.40;;;9.40;99.90;;;;;;5013241;28;20556;-51
2023/01/07 02:51:50;;;;;;;3.13;2.83;;;9.30;99.90;;;;;;5013133;28;20053;-47
2023/01/07 02:54:36;;;;;;;2.78;2.40;;;9.30;99.90;;;;;;5013935;28;20034;-50
2023/01/07 02:58:04;;;;;;;3.03;2.72;;;9.40;99.90;;;;;;5012781;28;20030;-50
2023/01/07 03:01:16;;;;;;;2.97;2.67;;;9.40;99.90;;;;;;5013886;28;20026;-53
2023/01/07 03:04:24;;;;;;;3.40;2.60;;;9.40;99.90;;;;;;5014084;28;20021;-50
2023/01/07 03:07:31;;;;;;;3.10;2.80;;;9.40;99.90;;;;;;5013123;28;20041;-50
2023/01/07 03:10:54;;;;;;;2.53;2.33;;;9.40;99.90;;;;;;5013559;28;20037;-49
2023/01/07 03:13:54;;;;;;;2.70;2.28;;;9.40;99.90;;;;;;5013171;28;20041;-52
2023/01/07 03:16:44;;;;;;;3.08;2.53;;;9.40;99.90;;;;;;5012853;28;20050;-49
2023/01/07 03:19:33;;;;;;;3.83;2.42;;;9.50;99.90;;;;;;5014178;28;20063;-52
2023/01/07 03:22:22;;;;;;;3.22;2.50;;;9.40;99.90;;;;;;5013083;28;20410;-49
2023/01/07 03:25:10;;;;;;;3.38;2.88;;;9.40;99.90;;;;;;5012611;28;20034;-53
2023/01/07 03:27:58;;;;;;;2.90;2.50;;;9.40;99.90;;;;;;5013254;28;20093;-51
2023/01/07 03:30:45;;;;;;;2.92;2.40;;;9.30;99.90;;;;;;5014177;28;20022;-50
2023/01/07 03:33:58;;;;;;;3.03;2.72;;;9.40;99.90;;;;;;5012697;28;20049;-48
2023/01/07 03:36:51;;;;;;;2.55;2.35;;;9.40;99.90;;;;;;5014105;28;20057;-49
2023/01/07 03:39:39;;;;;;;3.70;2.60;;;9.40;99.90;;;;;;5012602;28;20117;-48
2023/01/07 03:42:41;;;;;;;2.95;2.65;;;9.40;99.90;;;;;;5012610;28;20489;-48
2023/01/07 03:45:28;;;;;;;2.65;2.22;;;9.40;99.90;;;;;;5013053;28;20030;-48
2023/01/07 03:48:14;;;;;;;2.95;2.65;;;9.40;99.90;;;;;;5012131;28;20449;-49
2023/01/07 03:50:59;;;;;;;2.97;2.40;;;9.50;99.90;;;;;;5013629;28;20022;-48
2023/01/07 03:53:45;;;;;;;2.75;2.47;;;9.50;99.90;;;;;;5012785;28;20105;-50
2023/01/07 03:56:31;;;;;;;2.60;2.40;;;9.50;99.90;;;;;;5012354;28;20403;-48
2023/01/07 03:59:17;;;;;;;4.25;2.40;;;9.40;99.90;;;;;;5011833;28;20088;-51
2023/01/07 04:02:03;;;;;;;2.92;2.42;;;9.40;99.90;;;;;;5012268;28;20034;-49
2023/01/07 04:04:49;;;;;;;2.58;2.28;;;9.50;99.90;;;;;;5012305;28;20109;-49
2023/01/07 04:07:35;;;;;;;2.67;2.47;;;9.50;99.90;;;;;;5011853;28;20489;-51
2023/01/07 04:10:21;;;;;;;4.43;2.50;;;9.40;99.90;;;;;;5011639;28;20028;-51
2023/01/07 04:13:07;;;;;;;3.00;2.38;;;9.40;99.90;;;;;;5013298;28;20120;-50
2023/01/07 04:15:53;;;;;;;2.95;2.50;;;9.40;99.90;;;;;;5012593;28;20106;-50
2023/01/07 04:18:39;;;;;;;2.85;2.55;;;9.40;99.90;;;;;;5011520;28;20066;-54
2023/01/07 04:21:25;;;;;;;4.10;2.42;;;9.40;99.90;;;;;;5012168;28;20028;-50
2023/01/07 04:24:11;;;;;;;2.92;2.63;;;9.40;99.90;;;;;;5012592;28;20115;-47
2023/01/07 04:26:57;;;;;;;2.47;2.28;;;9.30;99.90;;;;;;5011569;28;20495;-50
2023/01/07 04:29:43;;;;;;;3.17;2.65;;;9.20;99.90;;;;;;5011787;28;20037;-50
2023/01/07 04:32:29;;;;;;;3.00;2.70;;;9.20;99.90;;;;;;5012416;28;20033;-50
2023/01/07 04:35:15;;;;;;;3.13;2.80;;;9.30;99.90;;;;;;5011686;28;20026;-49
2023/01/07 04:38:01;;;;;;;3.08;2.67;;;9.30;99.90;;;;;;4997294;28;20086;-51
2023/01/07 04:40:47;;;;;;;2.78;2.42;;;9.30;99.90;;;;;;5011685;28;20030;-54
2023/01/07 04:43:34;;;;;;;2.88;2.58;;;9.20;99.90;;;;;;5012206;28;20037;-50
2023/01/07 04:46:20;;;;;;;2.40;2.20;;;9.20;99.90;;;;;;5010052;28;20029;-48
2023/01/07 04:49:06;;;;;;;2.60;2.40;;;9.20;99.90;;;;;;5011669;28;20058;-49
2023/01/07 04:51:52;;;;;;;3.13;2.83;;;9.20;99.90;;;;;;5012309;28;20022;-49
2023/01/07 04:54:38;;;;;;;3.35;2.80;;;9.10;99.90;;;;;;5011594;28;20034;-52
2023/01/07 04:57:25;;;;;;;3.60;2.78;;;9.10;99.90;;;;;;5011266;28;20495;-52
2023/01/07 05:00:11;;;;;;;4.78;2.70;;;9.10;99.90;;;;;;5011873;28;20061;-50
2023/01/07 05:02:57;;;;;;;2.60;2.40;;;9.10;99.90;;;;;;5010367;28;20030;-51
2023/01/07 05:05:44;;;;;;;4.55;2.65;;;9.10;99.90;;;;;;5011741;28;20029;-51
2023/01/07 05:08:30;;;;;;;3.90;2.55;;;9.10;99.90;;;;;;5011562;28;20030;-52
2023/01/07 05:11:20;;;;;;;2.83;2.47;;;9.10;99.90;;;;;;5012040;28;20026;-49
2023/01/07 05:14:06;;;;;;;2.90;2.70;;;9.00;99.90;;;;;;5012593;28;20375;-52
2023/01/07 05:16:52;;;;;;;3.03;2.45;;;9.00;99.90;;;;;;5012300;28;20080;-49
2023/01/07 05:19:38;;;;;;;2.90;2.60;;;9.00;99.90;;;;;;5011647;28;20030;-47
2023/01/07 05:22:24;;;;;;;2.67;2.42;;;9.00;99.90;;;;;;5010862;28;20066;-51
2023/01/07 05:25:10;;;;;;;2.75;2.40;;;9.00;99.90;;;;;;5011856;28;20064;-48
2023/01/07 05:27:56;;;;;;;2.70;2.50;;;9.00;99.90;;;;;;4996713;28;20121;-49
2023/01/07 05:30:41;;;;;;;3.03;2.72;;;9.00;99.90;;;;;;4997055;28;20074;-49
2023/01/07 05:33:27;;;;;;;3.63;2.35;;;9.00;99.90;;;;;;4996728;28;20152;-51
2023/01/07 05:36:13;;;;;;;2.42;2.22;;;9.00;99.90;;;;;;5011150;28;20038;-53
2023/01/07 05:38:59;;;;;;;2.53;2.33;;;9.10;99.90;;;;;;5011741;28;20565;-51
2023/01/07 05:41:45;;;;;;;2.60;2.40;;;9.10;99.90;;;;;;5010418;28;20056;-51
2023/01/07 05:44:31;;;;;;;2.85;2.53;;;9.10;99.90;;;;;;5011613;28;20514;-48
2023/01/07 05:47:17;;;;;;;3.05;2.75;;;9.00;99.90;;;;;;5011522;28;20109;-51
2023/01/07 05:50:04;;;;;;;2.60;2.40;;;9.10;99.90;;;;;;5010927;28;20026;-50
2023/01/07 05:52:50;;;;;;;2.53;2.33;;;9.10;99.90;;;;;;5011505;28;20034;-51
2023/01/07 05:55:37;;;;;;;2.88;2.60;;;9.10;99.90;;;;;;5011553;28;20436;-50
2023/01/07 05:58:23;;;;;;;3.63;2.30;;;9.10;99.90;;;;;;5010214;28;20048;-52
2023/01/07 06:01:09;;;;;;;2.90;2.42;;;9.10;99.90;;;;;;5011445;28;20375;-49
2023/01/07 06:03:55;;;;;;;2.78;2.03;;;9.10;99.90;;;;;;5011009;28;20101;-48
2023/01/07 06:06:41;;;;;;;2.20;2.00;;;9.10;99.90;;;;;;5010594;28;20033;-49
2023/01/07 06:09:28;;;;;;;2.65;2.40;;;9.10;99.90;;;;;;5010958;28;20092;-49
2023/01/07 06:12:14;;;;;;;2.47;2.28;;;9.10;99.90;;;;;;5012162;28;20153;-49
2023/01/07 06:15:00;;;;;;;2.72;2.42;;;9.10;99.90;;;;;;5011687;28;20033;-52
2023/01/07 06:17:46;;;;;;;2.40;2.20;;;9.10;99.90;;;;;;5011424;28;20042;-51
2023/01/07 06:20:33;;;;;;;2.80;2.30;;;9.00;99.90;;;;;;5010956;28;20042;-50
2023/01/07 06:23:19;;;;;;;2.33;2.13;;;9.00;99.90;;;;;;5011236;28;20537;-47
2023/01/07 06:26:05;;;;;;;3.20;2.20;;;9.00;99.90;;;;;;5011065;28;20026;-51
2023/01/07 06:28:51;;;;;;;2.20;2.00;;;9.10;99.90;;;;;;5011145;28;20125;-51
2023/01/07 06:31:37;;;;;;;2.65;2.20;;;9.10;99.90;;;;;;5011177;28;20034;-48
2023/01/07 06:34:23;;;;;;;2.63;2.40;;;9.00;99.90;;;;;;5014199;28;20117;-49
2023/01/07 06:37:09;;;;;;;2.80;2.40;;;9.00;99.90;;;;;;5014294;28;20030;-53
2023/01/07 06:39:55;;;;;;;2.67;2.20;;;9.00;99.90;;;;;;5015029;28;20301;-51
2023/01/07 06:42:41;;;;;;;2.90;2.60;;;9.00;99.90;;;;;;5014132;28;20026;-47
2023/01/07 06:45:27;;;;;;;2.38;2.17;;;9.00;99.90;;;;;;5014735;28;20093;-48
2023/01/07 06:48:13;;;;;;;3.10;2.40;;;8.90;99.90;;;;;;5014602;28;20431;-50
2023/01/07 06:50:59;;;;;;;2.45;2.05;;;8.90;99.90;;;;;;4987232;28;20117;-52
2023/01/07 06:53:44;;;;;;;2.50;2.17;;;8.90;99.90;;;;;;5014438;28;20034;-51
2023/01/07 06:56:30;;;;;;;2.60;2.40;;;8.90;99.90;;;;;;5014707;28;20424;-49
2023/01/07 06:59:16;;;;;;;2.50;2.30;;;8.90;99.90;;;;;;5014364;28;20037;-48
2023/01/07 07:02:02;;;;;;;2.40;2.20;;;9.00;99.90;;;;;;5013493;28;20034;-50
2023/01/07 07:04:48;;;;;;;2.42;2.22;;;9.00;99.90;;;;;;5013365;28;20101;-49
2023/01/07 07:07:34;;;;;;;8.05;5.57;;;8.90;99.90;;;;;;5012702;28;20038;-55
2023/01/07 07:10:20;;;;;;;3.58;2.75;;;8.90;99.90;;;;;;5014139;28;20034;-49
2023/01/07 07:13:07;;;;;;;2.40;2.20;;;8.90;99.90;;;;;;5014084;28;20022;-51
2023/01/07 07:15:53;;;;;;;2.40;2.20;;;8.90;99.90;;;;;;5014815;28;20026;-49
2023/01/07 07:18:39;;;;;;;2.67;2.22;;;9.00;99.90;;;;;;5014191;28;20486;-50
2023/01/07 07:21:25;;;;;;;2.30;2.10;;;9.00;99.90;;;;;;5014048;28;20033;-49
2023/01/07 07:24:11;;;;;;;2.08;1.90;;;8.90;99.90;;;;;;5013351;28;20089;-48
2023/01/07 07:26:58;;;;;;;3.13;2.60;;;9.00;99.90;;;;;;5012566;28;20089;-52
2023/01/07 07:29:44;;;;;;;2.60;2.40;;;8.90;99.90;;;;;;5013171;28;20096;-51
2023/01/07 07:32:30;;;;;;;2.45;2.05;;;8.90;99.90;;;;;;4998709;28;20425;-52
2023/01/07 07:35:16;;;;;;;2.97;2.10;;;8.90;99.90;;;;;;5013484;28;20022;-51
2023/01/07 07:38:02;;;;;;;2.30;2.03;;;9.00;99.90;;;;;;4999356;28;20034;-49
2023/01/07 07:40:48;;;;;;;2.63;2.05;;;9.10;99.90;;;;;;5013480;28;20026;-52
2023/01/07 07:43:34;;;;;;;2.67;2.40;;;9.10;99.90;;;;;;5012554;28;20136;-50
2023/01/07 07:46:21;;;;;;;3.15;2.22;;;9.10;99.90;;;;;;5013224;28;20030;-53
2023/01/07 07:49:06;;;;;;;3.67;2.92;;;9.10;99.90;;;;;;5013619;28;20018;-53
2023/01/07 07:51:52;;;;;;;2.55;2.35;;;9.10;99.90;;;;;;5014264;28;20034;-54
2023/01/07 07:54:38;;;;;;;4.15;2.28;;;9.20;99.90;;;;;;5012719;28;20110;-45
2023/01/07 07:57:24;;;;;;;2.47;2.28;;;9.20;99.90;;;;;;5012448;28;20044;-48
2023/01/07 08:00:11;;;;;;;1.95;1.85;;;9.20;99.90;;;;;;4998581;28;20078;-52
2023/01/07 08:02:58;;;;;;;2.47;2.10;;;9.20;99.90;;;;;;4999882;28;20445;-48
2023/01/07 08:05:44;;;;;;;2.20;2.00;;;9.20;99.90;;;;;;5012870;28;20022;-50
2023/01/07 08:08:30;;;;;;;3.92;2.13;;;9.20;99.90;;;;;;5013485;28;20060;-49
2023/01/07 08:11:16;;;;;;;4.20;2.85;;;9.30;99.90;;;;;;5012063;28;20030;-52
2023/01/07 08:14:02;;;;;;;2.13;1.92;;;9.40;99.90;;;;;;5012462;28;20105;-51
2023/01/07 08:16:48;;;;;;;2.20;2.00;;;9.40;99.90;;;;;;5004767;28;20033;-49
2023/01/07 08:19:34;;;;;;;2.28;2.08;;;9.50;99.90;;;;;;5012933;28;20034;-52
2023/01/07 08:22:20;;;;;;;2.45;2.20;;;9.50;99.90;;;;;;5012247;28;20037;-50
2023/01/07 08:25:06;;;;;;;2.50;2.30;;;9.60;99.90;;;;;;4998730;28;20502;-48
2023/01/07 08:27:54;;;;;;;4.03;3.63;;;9.60;99.90;;;;;;5011796;28;20041;-49
2023/01/07 08:30:41;;;;;;;2.78;2.30;;;9.70;99.90;;;;;;4999063;28;20030;-49
2023/01/07 08:33:27;;;;;;;4.57;3.40;;;9.80;99.90;;;;;;5013198;28;20058;-52
2023/01/07 08:36:13;;;;;;;9.38;6.25;;;9.90;99.90;;;;;;5012134;28;20057;-50
2023/01/07 08:38:59;;;;;;;3.03;2.50;;;9.90;99.90;;;;;;5011861;28;20065;-52
2023/01/07 08:41:45;;;;;;;2.63;2.30;;;10.00;99.90;;;;;;5011910;28;20030;-53
2023/01/07 08:44:33;;;;;;;2.40;2.20;;;10.00;99.90;;;;;;5012407;28;20052;-51
2023/01/07 08:47:19;;;;;;;2.40;2.20;;;10.10;99.90;;;;;;5013016;28;20088;-49
2023/01/07 08:50:05;;;;;;;2.58;2.20;;;10.10;99.90;;;;;;4998900;28;20030;-48
2023/01/07 08:52:51;;;;;;;3.00;2.50;;;10.20;99.90;;;;;;5013179;28;20073;-49
2023/01/07 08:55:37;;;;;;;8.18;6.13;;;10.20;99.90;;;;;;5011952;28;20084;-49
2023/01/07 08:58:24;;;;;;;10.00;6.18;;;10.30;99.90;;;;;;5012242;28;20033;-51
2023/01/07 09:01:10;;;;;;;3.72;2.30;;;10.30;99.90;;;;;;5013067;28;20030;-50
2023/01/07 09:03:56;;;;;;;3.30;2.80;;;10.30;99.90;;;;;;4999103;28;20113;-48
2023/01/07 09:06:42;;;;;;;2.38;2.17;;;10.40;99.90;;;;;;5011564;28;20098;-50
2023/01/07 09:09:28;;;;;;;2.97;2.38;;;10.40;99.90;;;;;;4997681;28;20032;-48
2023/01/07 09:12:14;;;;;;;4.18;2.65;;;10.50;99.90;;;;;;5012399;28;20053;-51
2023/01/07 09:15:00;;;;;;;2.90;2.42;;;10.50;99.90;;;;;;5011699;28;20113;-53
2023/01/07 09:17:48;;;;;;;3.33;2.40;;;10.60;99.90;;;;;;4997758;28;20101;-53
2023/01/07 09:20:34;;;;;;;2.63;2.40;;;10.60;99.90;;;;;;5011905;28;20045;-52
2023/01/07 09:23:21;;;;;;;4.70;2.90;;;10.70;99.90;;;;;;4997843;28;20037;-53
2023/01/07 09:26:07;;;;;;;5.88;4.22;;;10.70;99.90;;;;;;5011345;28;20033;-49
2023/01/07 09:28:53;;;;;;;5.80;5.00;;;10.80;99.90;;;;;;5011405;28;20045;-48
2023/01/07 09:31:39;;;;;;;12.10;9.23;;;10.80;99.90;;;;;;5011009;28;20026;-48
2023/01/07 09:34:25;;;;;;;6.15;4.65;;;10.80;99.90;;;;;;5010414;28;20486;-48
2023/01/07 09:37:11;;;;;;;8.18;5.93;;;10.80;99.90;;;;;;5011844;28;20149;-47
2023/01/07 09:39:59;;;;;;;6.13;3.90;;;10.90;99.90;;;;;;5011158;28;20066;-50
2023/01/07 09:43:00;;;;;;;5.28;3.45;;;10.90;99.90;;;;;;5011416;28;20081;-49
2023/01/07 09:45:49;;;;;;;7.63;4.82;;;10.90;99.90;;;;;;5011910;28;20546;-48
2023/01/07 09:48:42;;;;;;;6.95;4.25;;;10.90;99.90;;;;;;5011649;28;20498;-50
2023/01/07 09:51:39;;;;;;;11.15;6.53;;;10.90;99.90;;;;;;5012494;28;20022;-49
2023/01/07 09:54:31;;;;;;;7.57;4.80;;;10.90;99.90;;;;;;5012497;28;20033;-51
2023/01/07 09:57:18;;;;;;;5.30;3.90;;;10.90;99.90;;;;;;5016745;28;20026;-47
2023/01/07 10:00:16;;;;;;;5.43;3.83;;;10.90;99.90;;;;;;5017409;28;20089;-51
2023/01/07 10:03:28;;;;;;;12.15;8.85;;;10.90;99.90;;;;;;5022441;28;20033;-50
2023/01/07 10:06:26;;;;;;;7.07;5.80;;;10.90;99.90;;;;;;5020901;28;20461;-49
2023/01/07 10:09:32;;;;;;;5.60;3.72;;;10.90;99.90;;;;;;5024470;28;20033;-47
2023/01/07 10:12:30;;;;;;;4.60;3.40;;;10.90;99.90;;;;;;5016754;28;20088;-49
2023/01/07 10:15:37;;;;;;;4.57;3.67;;;10.80;99.90;;;;;;5003197;28;20032;-51
2023/01/07 10:18:55;;;;;;;5.40;3.50;;;10.80;99.90;;;;;;5018737;28;20046;-46
2023/01/07 10:21:43;;;;;;;3.03;2.72;;;10.70;99.90;;;;;;5015498;28;20030;-50
2023/01/07 10:24:41;;;;;;;4.68;2.92;;;10.80;99.90;;;;;;5015752;28;20030;-50
2023/01/07 10:27:36;;;;;;;3.42;2.60;;;10.80;99.90;;;;;;5015528;28;20061;-48
2023/01/07 10:30:28;;;;;;;3.30;2.97;;;10.80;99.90;;;;;;5014058;28;20068;-49
2023/01/07 10:33:19;;;;;;;4.13;3.35;;;10.70;99.90;;;;;;5015198;28;20058;-50
2023/01/07 10:36:30;;;;;;;4.07;3.08;;;10.80;99.90;;;;;;5014715;28;20030;-50
2023/01/07 10:39:33;;;;;;;9.40;7.13;;;10.80;99.90;;;;;;5015295;28;20053;-49
2023/01/07 10:42:35;;;;;;;3.53;2.92;;;10.80;99.90;;;;;;5015272;28;20050;-58
2023/01/07 10:45:40;;;;;;;3.33;3.03;;;10.90;99.90;;;;;;5000575;28;20026;-53
2023/01/07 10:48:45;;;;;;;3.92;2.80;;;10.90;99.90;;;;;;5014656;28;20030;-56
2023/01/07 10:51:43;;;;;;;3.67;2.70;;;10.90;99.90;;;;;;5013758;28;20037;-52
2023/01/07 10:54:41;;;;;;;4.80;3.60;;;11.00;99.90;;;;;;5014917;28;20026;-51
2023/01/07 10:57:30;;;;;;;2.75;2.10;;;11.00;99.90;;;;;;5014309;28;20070;-50
2023/01/07 11:00:17;;;;;;;2.50;2.30;;;11.10;99.90;;;;;;5014081;28;20401;-49
2023/01/07 11:03:03;;;;;;;3.70;2.70;;;11.00;99.90;;;;;;5015497;28;20026;-49
2023/01/07 11:05:56;;;;;;;2.40;2.20;;;11.10;99.90;;;;;;5014824;28;20032;-49
2023/01/07 11:08:42;;;;;;;3.47;2.20;;;11.10;99.90;;;;;;5013203;28;20104;-54
2023/01/07 11:11:29;;;;;;;3.17;2.58;;;11.10;99.90;;;;;;5013883;28;20568;-51
2023/01/07 11:14:26;;;;;;;2.40;2.20;;;11.10;99.90;;;;;;5014145;28;20026;-49
2023/01/07 11:17:34;;;;;;;2.35;2.00;;;11.20;99.90;;;;;;5013792;28;20034;-49
2023/01/07 11:20:40;;;;;;;3.53;2.60;;;11.20;99.90;;;;;;5013262;28;20030;-55
2023/01/07 11:23:33;;;;;;;2.80;2.40;;;11.30;99.90;;;;;;5013515;28;20108;-52
2023/01/07 11:26:26;;;;;;;3.28;2.40;;;11.30;99.90;;;;;;5012905;28;20022;-52
2023/01/07 11:29:29;;;;;;;2.75;2.40;;;11.30;99.90;;;;;;5013731;28;20037;-55
2023/01/07 11:32:26;;;;;;;6.20;3.72;;;11.40;99.90;;;;;;5013606;28;20034;-58
2023/01/07 11:35:20;;;;;;;3.42;2.70;;;11.40;99.90;;;;;;4998244;28;20518;-57
2023/01/07 11:38:32;;;;;;;2.63;2.30;;;11.30;99.90;;;;;;4996695;28;20045;-54
2023/01/07 11:41:22;;;;;;;2.92;2.22;;;11.30;99.90;;;;;;4996926;28;20040;-52
2023/01/07 11:44:15;;;;;;;2.80;2.28;;;11.30;99.90;;;;;;5011857;28;20026;-55
2023/01/07 11:47:02;;;;;;;3.10;2.20;;;11.40;99.90;;;;;;5012419;28;20037;-52
2023/01/07 11:49:48;;;;;;;2.20;2.00;;;11.50;99.90;;;;;;5012597;28;20549;-53
2023/01/07 11:52:34;;;;;;;2.10;1.92;;;11.50;99.90;;;;;;5013011;28;20026;-54
2023/01/07 11:55:22;;;;;;;3.08;2.10;;;11.50;99.90;;;;;;4998426;28;20025;-48
2023/01/07 11:58:18;;;;;;;1.80;1.70;;;11.60;99.90;;;;;;5013011;28;20026;-52
2023/01/07 12:01:07;;;;;;;2.03;1.83;;;11.60;99.90;;;;;;5013212;28;20466;-48
2023/01/07 12:03:52;;;;;;;3.08;2.15;;;11.50;99.90;;;;;;5012688;28;20033;-54
2023/01/07 12:06:43;;;;;;;2.00;1.80;;;11.60;99.90;;;;;;5012870;28;20026;-53
2023/01/07 12:09:34;;;;;;;2.00;1.80;;;11.60;99.90;;;;;;5012673;28;20029;-54
2023/01/07 12:12:38;;;;;;;2.42;2.08;;;11.60;99.90;;;;;;5012629;28;20037;-51
2023/01/07 12:15:45;;;;;;;2.60;2.13;;;11.60;99.90;;;;;;5012576;28;20061;-50
2023/01/07 12:18:46;;;;;;;3.00;2.70;;;11.60;99.90;;;;;;5012232;28;20026;-49
2023/01/07 12:21:37;;;;;;;2.55;2.03;;;11.70;99.90;;;;;;5013259;28;20100;-49
2023/01/07 12:25:04;;;;;;;2.10;1.80;;;11.70;99.90;;;;;;5012282;28;20026;-52
2023/01/07 12:27:56;;;;;;;2.30;1.83;;;11.80;99.90;;;;;;5010305;28;20028;-50
2023/01/07 12:31:26;;;;;;;2.85;1.90;;;11.70;99.90;;;;;;5010954;28;20053;-49
2023/01/07 12:34:30;;;;;;;2.20;2.00;;;11.70;99.90;;;;;;4981354;28;20034;-52
2023/01/07 12:37:37;;;;;;;2.13;1.80;;;11.60;99.90;;;;;;5011474;28;20046;-54
2023/01/07 12:40:42;;;;;;;2.22;1.83;;;11.50;99.90;;;;;;5057616;23;20084;-53
2023/01/07 12:43:39;;;;;;;2.60;2.08;;;11.40;99.90;;;;;;5031653;28;20509;-50
2023/01/07 12:46:34;;;;;;;2.40;2.03;;;11.50;99.90;;;;;;5031974;28;20410;-52
2023/01/07 12:49:34;;;;;;;2.05;1.80;;;11.40;99.90;;;;;;5011529;28;20548;-50
2023/01/07 12:52:35;;;;;;;1.80;1.70;;;11.30;99.90;;;;;;5012764;28;20426;-51
2023/01/07 12:55:40;;;;;;;1.63;1.50;;;11.30;99.90;;;;;;5012213;28;20379;-48
2023/01/07 12:58:43;;;;;;;;;;;11.40;99.90;;;;;;5011526;28;20022;-52
2023/01/07 13:01:40;;;;;;;1.92;1.70;;;11.50;99.90;;;;;;5012059;28;19905;-49
2023/01/07 13:04:39;;;;;;;3.70;2.10;;;11.40;99.90;;;;;;5013094;28;20021;-52
2023/01/07 13:07:47;;;;;;;2.90;2.28;;;11.40;99.90;;;;;;5012007;28;20026;-53
2023/01/07 13:10:43;;;;;;;3.67;2.15;;;11.50;99.90;;;;;;5011969;28;20133;-51
2023/01/07 13:13:42;;;;;;;2.97;2.20;;;11.40;99.90;;;;;;5013212;28;20498;-50
2023/01/07 13:16:28;;;;;;;3.00;2.33;;;11.50;99.90;;;;;;4998297;28;20070;-52
2023/01/07 13:19:14;;;;;;;5.82;3.45;;;11.50;99.90;;;;;;4996693;28;20104;-51
2023/01/07 13:22:00;;;;;;;2.58;2.05;;;11.40;99.90;;;;;;5012751;28;20132;-49
2023/01/07 13:24:56;;;;;;;3.47;2.30;;;11.40;99.90;;;;;;4998688;28;20085;-50
2023/01/07 13:28:08;;;;;;;2.45;2.08;;;11.30;99.90;;;;;;4996772;28;20450;-51
2023/01/07 13:31:23;;;;;;;5.60;4.00;;;11.30;99.90;;;;;;5012673;28;20033;-49
2023/01/07 13:34:24;;;;;;;2.87;2.30;;;11.20;99.90;;;;;;5012016;28;20470;-53
2023/01/07 13:37:39;;;;;;;2.22;2.00;;;11.20;99.90;;;;;;5010544;28;20080;-45
2023/01/07 13:40:49;;;;;;;2.73;2.33;;;11.20;99.90;;;;;;5012122;28;20112;-50
2023/01/07 13:43:59;;;;;;;2.63;2.00;;;11.10;99.90;;;;;;5016125;28;20032;-47
2023/01/07 13:46:46;;;;;;;2.70;2.08;;;11.10;99.90;;;;;;5000358;28;20073;-49
2023/01/07 13:49:33;;;;;;;2.40;1.92;;;11.20;99.90;;;;;;5002764;28;20022;-46
2023/01/07 13:52:22;;;;;;;2.38;2.17;;;11.20;99.90;;;;;;5014997;28;20094;-51
2023/01/07 13:55:31;;;;;;;10.93;7.18;;;11.10;99.90;;;;;;5016093;28;20105;-47
2023/01/07 13:58:54;;;;;;;3.53;2.80;;;11.00;99.90;;;;;;5015966;28;20336;-44
2023/01/07 14:02:17;;;;;;;2.70;2.30;;;11.10;99.90;;;;;;5016125;28;20169;-47
2023/01/07 14:05:08;;;;;;;2.58;2.20;;;11.10;99.90;;;;;;5015012;28;20058;-48
2023/01/07 14:08:01;;;;;;;3.15;2.40;;;11.00;99.90;;;;;;5014928;28;20076;-45
2023/01/07 14:10:52;;;;;;;2.47;2.25;;;11.00;99.90;;;;;;5016133;28;20097;-46
2023/01/07 14:13:41;;;;;;;2.88;2.30;;;11.00;99.90;;;;;;4999930;28;20026;-46
2023/01/07 14:16:35;;;;;;;3.25;2.67;;;10.90;99.90;;;;;;5015221;28;20521;-47
2023/01/07 14:19:42;;;;;;;3.88;2.90;;;10.90;99.90;;;;;;5014118;28;20026;-47
2023/01/07 14:22:55;;;;;;;4.10;2.60;;;11.00;99.90;;;;;;5016338;28;20037;-48
2023/01/07 14:26:07;;;;;;;3.53;2.03;;;11.00;99.90;;;;;;5014077;28;20037;-46
2023/01/07 14:29:11;;;;;;;2.55;2.22;;;11.00;99.90;;;;;;5014201;28;20536;-47
2023/01/07 14:32:27;;;;;;;2.38;2.00;;;10.90;99.90;;;;;;5015009;28;20425;-46
2023/01/07 14:35:45;;;;;;;2.85;2.13;;;10.90;99.90;;;;;;5013853;28;20132;-52
2023/01/07 14:38:31;;;;;;;2.55;2.10;;;10.80;99.90;;;;;;4991066;28;20113;-48
2023/01/07 14:41:19;;;;;;;2.95;2.63;;;10.80;99.90;;;;;;5015372;28;20054;-49
2023/01/07 14:44:26;;;;;;;3.72;3.20;;;10.80;99.90;;;;;;5013840;28;20030;-51
2023/01/07 14:47:33;;;;;;;6.50;4.07;;;10.90;99.90;;;;;;5011978;28;20026;-46
2023/01/07 14:50:38;;;;;;;4.75;3.78;;;10.90;99.90;;;;;;5013706;28;20026;-45
2023/01/07 14:53:44;;;;;;;5.57;4.22;;;10.80;99.90;;;;;;5012946;28;20132;-47
2023/01/07 14:56:56;;;;;;;4.85;3.22;;;10.80;99.90;;;;;;5013887;28;20026;-47
2023/01/07 15:00:26;;;;;;;3.40;3.03;;;10.90;99.90;;;;;;5014880;28;20039;-47
2023/01/07 15:03:30;;;;;;;3.40;2.95;;;10.90;99.90;;;;;;4974392;28;20506;-47
2023/01/07 15:06:29;;;;;;;3.65;2.78;;;10.90;99.90;;;;;;5014351;28;20026;-47